sensor_id;sensor_type;location;lat;lon;timestamp;pressure;altitude;pressure_sealevel;temperature;humidity
60375;BME280;70244;48.792;9.172;2023-07-22T04:17:12;97517.43;;;27.35;46.45
60375;BME280;70244;48.792;9.172;2023-07-22T04:19:42;97518.46;;;27.50;46.09
60375;BME280;70244;48.792;9.172;2023-07-22T04:23:23;97517.15;;;27.54;45.96
60375;BME280;70244;48.792;9.172;2023-07-22T04:25:54;97513.01;;;27.51;46.03
60375;BME280;70244;48.792;9.172;2023-07-22T04:28:24;97512.60;;;27.62;45.74
60375;BME280;70244;48.792;9.172;2023-07-22T04:30:56;97514.71;;;27.41;46.23
60375;BME280;70244;48.792;9.172;2023-07-22T04:33:26;97518.00;;;27.54;45.95
60375;BME280;70244;48.792;9.172;2023-07-22T04:35:59;97515.90;;;27.49;45.99
60375;BME280;70244;48.792;9.172;2023-07-22T04:38:27;97511.82;;;27.49;46.03
60375;BME280;70244;48.792;9.172;2023-07-22T04:40:58;97515.15;;;27.51;45.98
60375;BME280;70244;48.792;9.172;2023-07-22T04:43:28;97514.58;;;27.50;46.04
60375;BME280;70244;48.792;9.172;2023-07-22T04:45:59;97511.97;;;27.63;45.76
60375;BME280;70244;48.792;9.172;2023-07-22T04:48:30;97513.72;;;27.62;45.75
60375;BME280;70244;48.792;9.172;2023-07-22T04:51:01;97510.91;;;27.64;45.72
60375;BME280;70244;48.792;9.172;2023-07-22T04:53:31;97515.13;;;27.59;45.87
60375;BME280;70244;48.792;9.172;2023-07-22T04:56:02;97513.69;;;27.80;45.40
60375;BME280;70244;48.792;9.172;2023-07-22T04:58:32;97515.54;;;27.73;45.52
60375;BME280;70244;48.792;9.172;2023-07-22T05:01:03;97518.94;;;27.60;45.84
60375;BME280;70244;48.792;9.172;2023-07-22T05:03:34;97521.87;;;27.83;45.32
60375;BME280;70244;48.792;9.172;2023-07-22T05:06:04;97521.46;;;27.80;45.35
60375;BME280;70244;48.792;9.172;2023-07-22T05:08:35;97521.87;;;27.76;45.39
60375;BME280;70244;48.792;9.172;2023-07-22T05:11:07;97521.48;;;27.84;45.23
60375;BME280;70244;48.792;9.172;2023-07-22T05:13:37;97520.92;;;27.81;45.30
60375;BME280;70244;48.792;9.172;2023-07-22T05:16:07;97526.79;;;27.90;45.10
60375;BME280;70244;48.792;9.172;2023-07-22T05:18:38;97529.69;;;27.96;44.97
60375;BME280;70244;48.792;9.172;2023-07-22T05:21:09;97531.13;;;27.80;45.24
60375;BME280;70244;48.792;9.172;2023-07-22T05:23:39;97530.56;;;28.00;44.86
60375;BME280;70244;48.792;9.172;2023-07-22T05:26:10;97534.73;;;28.00;44.79
60375;BME280;70244;48.792;9.172;2023-07-22T05:28:41;97535.80;;;27.94;44.92
60375;BME280;70244;48.792;9.172;2023-07-22T05:31:11;97530.69;;;27.98;44.82
60375;BME280;70244;48.792;9.172;2023-07-22T05:33:42;97535.44;;;27.96;44.87
60375;BME280;70244;48.792;9.172;2023-07-22T05:36:12;97531.96;;;28.06;44.65
60375;BME280;70244;48.792;9.172;2023-07-22T05:38:43;97536.55;;;28.10;44.55
60375;BME280;70244;48.792;9.172;2023-07-22T05:41:13;97535.98;;;28.10;44.53
60375;BME280;70244;48.792;9.172;2023-07-22T05:43:44;97539.40;;;28.03;44.64
60375;BME280;70244;48.792;9.172;2023-07-22T05:46:15;97541.44;;;28.33;44.04
60375;BME280;70244;48.792;9.172;2023-07-22T05:48:45;97543.15;;;28.31;44.06
60375;BME280;70244;48.792;9.172;2023-07-22T05:51:17;97544.40;;;28.30;44.05
60375;BME280;70244;48.792;9.172;2023-07-22T05:53:47;97542.80;;;28.25;44.13
60375;BME280;70244;48.792;9.172;2023-07-22T05:56:17;97546.25;;;28.39;43.75
60375;BME280;70244;48.792;9.172;2023-07-22T05:58:48;97556.05;;;28.34;43.93
60375;BME280;70244;48.792;9.172;2023-07-22T06:01:19;97563.47;;;28.27;44.05
60375;BME280;70244;48.792;9.172;2023-07-22T06:03:49;97567.27;;;28.39;43.77
60375;BME280;70244;48.792;9.172;2023-07-22T06:06:20;97566.88;;;28.42;43.69
60375;BME280;70244;48.792;9.172;2023-07-22T06:08:50;97570.23;;;28.36;43.81
60375;BME280;70244;48.792;9.172;2023-07-22T06:11:21;97574.16;;;28.49;43.53
60375;BME280;70244;48.792;9.172;2023-07-22T06:13:52;97580.65;;;28.42;43.70
60375;BME280;70244;48.792;9.172;2023-07-22T06:16:22;97577.07;;;28.35;43.80
60375;BME280;70244;48.792;9.172;2023-07-22T06:18:53;97578.92;;;28.45;43.66
60375;BME280;70244;48.792;9.172;2023-07-22T06:21:23;97577.58;;;28.41;43.73
60375;BME280;70244;48.792;9.172;2023-07-22T06:23:54;97578.98;;;28.50;43.56
60375;BME280;70244;48.792;9.172;2023-07-22T06:26:25;97578.85;;;28.55;43.43
60375;BME280;70244;48.792;9.172;2023-07-22T06:28:55;97577.29;;;28.53;43.52
60375;BME280;70244;48.792;9.172;2023-07-22T06:31:26;97576.59;;;28.62;43.32
60375;BME280;70244;48.792;9.172;2023-07-22T06:33:57;97583.46;;;28.47;43.63
60375;BME280;70244;48.792;9.172;2023-07-22T06:36:27;97583.90;;;28.59;43.39
60375;BME280;70244;48.792;9.172;2023-07-22T06:38:58;97581.64;;;28.65;43.27
60375;BME280;70244;48.792;9.172;2023-07-22T06:41:29;97583.08;;;28.54;43.48
60375;BME280;70244;48.792;9.172;2023-07-22T06:43:59;97581.30;;;28.58;43.37
60375;BME280;70244;48.792;9.172;2023-07-22T06:46:30;97578.58;;;28.81;42.89
60375;BME280;70244;48.792;9.172;2023-07-22T06:49:01;97583.10;;;28.83;42.77
60375;BME280;70244;48.792;9.172;2023-07-22T06:51:31;97582.15;;;28.78;42.86
60375;BME280;70244;48.792;9.172;2023-07-22T06:54:02;97579.01;;;28.83;42.60
60375;BME280;70244;48.792;9.172;2023-07-22T06:56:33;97581.22;;;28.82;42.74
60375;BME280;70244;48.792;9.172;2023-07-22T06:59:03;97582.52;;;28.76;42.81
60375;BME280;70244;48.792;9.172;2023-07-22T07:01:34;97582.53;;;28.81;42.58
60375;BME280;70244;48.792;9.172;2023-07-22T07:04:05;97589.17;;;28.84;42.51
60375;BME280;70244;48.792;9.172;2023-07-22T07:06:36;97588.83;;;28.77;42.72
60375;BME280;70244;48.792;9.172;2023-07-22T07:09:06;97587.93;;;28.86;42.44
60375;BME280;70244;48.792;9.172;2023-07-22T07:11:37;97591.16;;;28.77;42.67
60375;BME280;70244;48.792;9.172;2023-07-22T07:14:07;97590.84;;;28.75;42.71
60375;BME280;70244;48.792;9.172;2023-07-22T07:16:38;97586.30;;;28.79;42.65
60375;BME280;70244;48.792;9.172;2023-07-22T07:19:09;97587.80;;;28.76;42.69
60375;BME280;70244;48.792;9.172;2023-07-22T07:21:39;97584.83;;;28.84;42.52
60375;BME280;70244;48.792;9.172;2023-07-22T07:24:10;97586.24;;;28.88;42.46
60375;BME280;70244;48.792;9.172;2023-07-22T07:26:41;97588.10;;;28.88;42.43
60375;BME280;70244;48.792;9.172;2023-07-22T07:29:11;97586.91;;;28.87;42.49
60375;BME280;70244;48.792;9.172;2023-07-22T07:31:42;97588.32;;;28.90;42.43
60375;BME280;70244;48.792;9.172;2023-07-22T07:34:13;97587.32;;;28.83;42.55
60375;BME280;70244;48.792;9.172;2023-07-22T07:36:43;97590.66;;;28.92;42.41
60375;BME280;70244;48.792;9.172;2023-07-22T07:39:14;97588.12;;;28.92;42.46
60375;BME280;70244;48.792;9.172;2023-07-22T07:41:45;97587.99;;;28.81;42.71
60375;BME280;70244;48.792;9.172;2023-07-22T07:44:15;97584.47;;;28.88;42.57
60375;BME280;70244;48.792;9.172;2023-07-22T07:46:46;97583.98;;;28.90;42.51
60375;BME280;70244;48.792;9.172;2023-07-22T07:49:18;97581.86;;;28.90;42.56
60375;BME280;70244;48.792;9.172;2023-07-22T07:51:47;97585.74;;;28.90;42.56
60375;BME280;70244;48.792;9.172;2023-07-22T07:54:18;97587.20;;;28.55;43.36
60375;BME280;70244;48.792;9.172;2023-07-22T07:56:48;97581.71;;;28.72;43.03
60375;BME280;70244;48.792;9.172;2023-07-22T07:59:19;97584.51;;;28.42;43.66
60375;BME280;70244;48.792;9.172;2023-07-22T08:01:50;97582.47;;;28.55;43.42
60375;BME280;70244;48.792;9.172;2023-07-22T08:04:20;97581.17;;;28.78;42.94
60375;BME280;70244;48.792;9.172;2023-07-22T08:06:51;97581.30;;;28.55;43.52
60375;BME280;70244;48.792;9.172;2023-07-22T08:09:22;97581.08;;;27.71;45.60
60375;BME280;70244;48.792;9.172;2023-07-22T08:11:52;97575.76;;;27.46;46.66
60375;BME280;70244;48.792;9.172;2023-07-22T08:14:23;97576.82;;;27.76;46.49
60375;BME280;70244;48.792;9.172;2023-07-22T08:16:53;97577.96;;;27.44;47.41
60375;BME280;70244;48.792;9.172;2023-07-22T08:19:30;97574.80;;;27.61;47.11
60375;BME280;70244;48.792;9.172;2023-07-22T08:21:55;97574.37;;;28.18;46.33
60375;BME280;70244;48.792;9.172;2023-07-22T08:24:25;97565.81;;;28.53;45.91
60375;BME280;70244;48.792;9.172;2023-07-22T08:26:56;97563.36;;;28.83;44.67
60375;BME280;70244;48.792;9.172;2023-07-22T08:29:27;97559.69;;;28.80;44.68
60375;BME280;70244;48.792;9.172;2023-07-22T08:31:57;97559.84;;;28.75;44.99
60375;BME280;70244;48.792;9.172;2023-07-22T08:34:28;97561.96;;;28.22;45.84
60375;BME280;70244;48.792;9.172;2023-07-22T08:36:59;97562.61;;;28.07;46.34
60375;BME280;70244;48.792;9.172;2023-07-22T08:39:29;97553.53;;;28.49;45.44
60375;BME280;70244;48.792;9.172;2023-07-22T08:42:02;97556.48;;;28.23;46.21
60375;BME280;70244;48.792;9.172;2023-07-22T08:44:33;97557.49;;;28.12;47.31
60375;BME280;70244;48.792;9.172;2023-07-22T08:47:02;97544.65;;;28.88;45.46
60375;BME280;70244;48.792;9.172;2023-07-22T08:49:33;97550.37;;;28.12;48.98
60375;BME280;70244;48.792;9.172;2023-07-22T08:52:03;97547.89;;;28.32;49.24
60375;BME280;70244;48.792;9.172;2023-07-22T08:54:33;97556.37;;;29.12;45.82
60375;BME280;70244;48.792;9.172;2023-07-22T08:57:05;97551.58;;;29.17;45.39
60375;BME280;70244;48.792;9.172;2023-07-22T08:59:35;97559.78;;;29.44;44.11
60375;BME280;70244;48.792;9.172;2023-07-22T09:02:06;97554.38;;;29.09;44.11
60375;BME280;70244;48.792;9.172;2023-07-22T09:04:36;97554.50;;;28.80;44.68
60375;BME280;70244;48.792;9.172;2023-07-22T09:07:06;97550.22;;;28.88;44.74
60375;BME280;70244;48.792;9.172;2023-07-22T09:09:37;97551.95;;;29.04;43.69
60375;BME280;70244;48.792;9.172;2023-07-22T09:12:08;97553.96;;;29.31;42.83
60375;BME280;70244;48.792;9.172;2023-07-22T09:14:38;97553.96;;;29.28;42.61
60375;BME280;70244;48.792;9.172;2023-07-22T09:17:09;97556.56;;;29.20;42.85
60375;BME280;70244;48.792;9.172;2023-07-22T09:19:39;97555.04;;;29.07;43.09
60375;BME280;70244;48.792;9.172;2023-07-22T09:22:10;97557.75;;;29.00;43.34
60375;BME280;70244;48.792;9.172;2023-07-22T09:24:41;97559.31;;;29.05;42.93
60375;BME280;70244;48.792;9.172;2023-07-22T09:27:11;97560.19;;;29.13;42.82
60375;BME280;70244;48.792;9.172;2023-07-22T09:29:42;97560.92;;;28.41;44.37
60375;BME280;70244;48.792;9.172;2023-07-22T09:32:13;97558.40;;;29.20;42.40
60375;BME280;70244;48.792;9.172;2023-07-22T09:37:14;97556.28;;;28.33;44.95
60375;BME280;70244;48.792;9.172;2023-07-22T09:39:46;97552.39;;;28.99;42.97
60375;BME280;70244;48.792;9.172;2023-07-22T09:42:23;97554.70;;;29.15;42.31
60375;BME280;70244;48.792;9.172;2023-07-22T09:44:48;97553.59;;;29.11;42.39
60375;BME280;70244;48.792;9.172;2023-07-22T09:47:16;97553.56;;;29.19;42.36
60375;BME280;70244;48.792;9.172;2023-07-22T09:49:46;97547.33;;;29.22;42.40
60375;BME280;70244;48.792;9.172;2023-07-22T09:52:17;97545.33;;;29.21;42.40
60375;BME280;70244;48.792;9.172;2023-07-22T09:54:48;97545.16;;;29.17;42.40
60375;BME280;70244;48.792;9.172;2023-07-22T09:57:20;97541.85;;;29.17;42.61
60375;BME280;70244;48.792;9.172;2023-07-22T09:59:51;97540.42;;;29.03;42.54
60375;BME280;70244;48.792;9.172;2023-07-22T10:02:22;97544.41;;;29.09;42.18
60375;BME280;70244;48.792;9.172;2023-07-22T10:04:51;97543.23;;;29.24;41.94
60375;BME280;70244;48.792;9.172;2023-07-22T10:07:21;97538.97;;;29.32;41.64
60375;BME280;70244;48.792;9.172;2023-07-22T10:09:54;97543.61;;;29.33;41.48
60375;BME280;70244;48.792;9.172;2023-07-22T10:12:23;97541.17;;;29.28;41.48
60375;BME280;70244;48.792;9.172;2023-07-22T10:14:53;97537.22;;;29.27;41.59
60375;BME280;70244;48.792;9.172;2023-07-22T10:17:22;97537.17;;;29.30;41.33
60375;BME280;70244;48.792;9.172;2023-07-22T10:19:53;97540.85;;;29.36;41.23
60375;BME280;70244;48.792;9.172;2023-07-22T10:22:24;97541.06;;;29.29;41.18
60375;BME280;70244;48.792;9.172;2023-07-22T10:24:55;97540.67;;;29.19;41.02
60375;BME280;70244;48.792;9.172;2023-07-22T10:27:26;97540.46;;;29.20;41.29
60375;BME280;70244;48.792;9.172;2023-07-22T10:29:56;97539.98;;;29.32;40.76
60375;BME280;70244;48.792;9.172;2023-07-22T10:32:32;97543.10;;;29.36;40.75
60375;BME280;70244;48.792;9.172;2023-07-22T10:34:57;97540.01;;;29.30;40.73
60375;BME280;70244;48.792;9.172;2023-07-22T10:37:31;97529.49;;;29.35;40.64
60375;BME280;70244;48.792;9.172;2023-07-22T10:40:01;97533.36;;;29.36;40.58
60375;BME280;70244;48.792;9.172;2023-07-22T10:42:31;97528.92;;;29.29;40.69
60375;BME280;70244;48.792;9.172;2023-07-22T10:45:00;97527.11;;;29.40;40.33
60375;BME280;70244;48.792;9.172;2023-07-22T10:47:32;97529.75;;;29.32;40.68
60375;BME280;70244;48.792;9.172;2023-07-22T10:50:06;97522.22;;;29.37;40.55
60375;BME280;70244;48.792;9.172;2023-07-22T10:52:38;97514.97;;;29.41;40.43
60375;BME280;70244;48.792;9.172;2023-07-22T10:55:03;97516.47;;;29.46;40.38
60375;BME280;70244;48.792;9.172;2023-07-22T10:57:32;97514.02;;;29.33;40.69
60375;BME280;70244;48.792;9.172;2023-07-22T11:00:04;97502.15;;;28.34;42.67
60375;BME280;70244;48.792;9.172;2023-07-22T11:02:33;97508.30;;;29.16;41.23
60375;BME280;70244;48.792;9.172;2023-07-22T11:05:05;97503.44;;;28.76;42.12
60375;BME280;70244;48.792;9.172;2023-07-22T11:07:42;97510.08;;;28.99;41.31
60375;BME280;70244;48.792;9.172;2023-07-22T11:10:11;97506.74;;;28.97;41.40
60375;BME280;70244;48.792;9.172;2023-07-22T11:12:38;97504.28;;;28.85;41.18
60375;BME280;70244;48.792;9.172;2023-07-22T11:15:07;97505.96;;;28.95;41.37
60375;BME280;70244;48.792;9.172;2023-07-22T11:17:38;97506.00;;;29.09;41.04
60375;BME280;70244;48.792;9.172;2023-07-22T11:20:09;97506.73;;;29.13;40.95
60375;BME280;70244;48.792;9.172;2023-07-22T11:22:39;97504.63;;;28.85;41.49
60375;BME280;70244;48.792;9.172;2023-07-22T11:25:09;97503.40;;;29.04;41.28
60375;BME280;70244;48.792;9.172;2023-07-22T11:27:40;97504.26;;;29.05;41.39
60375;BME280;70244;48.792;9.172;2023-07-22T11:30:12;97500.02;;;29.10;41.30
60375;BME280;70244;48.792;9.172;2023-07-22T11:32:42;97497.97;;;29.27;41.25
60375;BME280;70244;48.792;9.172;2023-07-22T11:35:12;97497.30;;;29.38;40.92
60375;BME280;70244;48.792;9.172;2023-07-22T11:37:43;97493.11;;;28.33;43.42
60375;BME280;70244;48.792;9.172;2023-07-22T11:40:13;97490.68;;;28.81;43.03
60375;BME280;70244;48.792;9.172;2023-07-22T11:42:44;97482.54;;;28.79;42.85
60375;BME280;70244;48.792;9.172;2023-07-22T11:45:15;97476.83;;;28.99;42.61
60375;BME280;70244;48.792;9.172;2023-07-22T11:47:45;97472.76;;;28.56;43.71
60375;BME280;70244;48.792;9.172;2023-07-22T11:50:16;97471.08;;;28.81;43.24
60375;BME280;70244;48.792;9.172;2023-07-22T11:52:50;97471.89;;;29.10;42.65
60375;BME280;70244;48.792;9.172;2023-07-22T11:55:22;97458.29;;;28.94;42.93
60375;BME280;70244;48.792;9.172;2023-07-22T11:57:52;97458.34;;;28.24;44.40
60375;BME280;70244;48.792;9.172;2023-07-22T12:00:18;97452.69;;;29.36;42.55
60375;BME280;70244;48.792;9.172;2023-07-22T12:02:49;97449.02;;;29.38;42.11
60375;BME280;70244;48.792;9.172;2023-07-22T12:05:21;97451.39;;;29.26;42.16
60375;BME280;70244;48.792;9.172;2023-07-22T12:07:50;97446.82;;;29.19;42.23
60375;BME280;70244;48.792;9.172;2023-07-22T12:10:24;97440.81;;;29.24;41.94
60375;BME280;70244;48.792;9.172;2023-07-22T12:12:51;97444.15;;;29.50;41.17
60375;BME280;70244;48.792;9.172;2023-07-22T12:15:22;97441.85;;;29.20;41.73
60375;BME280;70244;48.792;9.172;2023-07-22T12:17:54;97440.31;;;29.47;41.01
60375;BME280;70244;48.792;9.172;2023-07-22T12:20:24;97437.07;;;29.54;40.13
60375;BME280;70244;48.792;9.172;2023-07-22T12:22:54;97434.76;;;29.47;40.44
60375;BME280;70244;48.792;9.172;2023-07-22T12:25:24;97433.58;;;29.45;40.62
60375;BME280;70244;48.792;9.172;2023-07-22T12:27:55;97422.92;;;29.51;40.21
60375;BME280;70244;48.792;9.172;2023-07-22T12:30:25;97430.07;;;29.56;40.00
60375;BME280;70244;48.792;9.172;2023-07-22T12:32:56;97427.01;;;29.61;39.75
60375;BME280;70244;48.792;9.172;2023-07-22T12:35:27;97421.65;;;29.49;40.15
60375;BME280;70244;48.792;9.172;2023-07-22T12:38:02;97416.57;;;29.57;39.65
60375;BME280;70244;48.792;9.172;2023-07-22T12:40:28;97412.95;;;29.66;39.67
60375;BME280;70244;48.792;9.172;2023-07-22T12:42:58;97409.40;;;29.65;39.53
60375;BME280;70244;48.792;9.172;2023-07-22T12:45:29;97404.55;;;29.57;39.42
60375;BME280;70244;48.792;9.172;2023-07-22T12:47:59;97400.34;;;29.47;39.82
60375;BME280;70244;48.792;9.172;2023-07-22T12:50:30;97406.20;;;29.38;39.99
60375;BME280;70244;48.792;9.172;2023-07-22T12:53:02;97402.65;;;29.50;39.45
60375;BME280;70244;48.792;9.172;2023-07-22T12:55:31;97401.31;;;29.42;39.35
60375;BME280;70244;48.792;9.172;2023-07-22T12:58:02;97410.76;;;29.33;39.79
60375;BME280;70244;48.792;9.172;2023-07-22T13:00:33;97410.76;;;29.41;39.46
60375;BME280;70244;48.792;9.172;2023-07-22T13:03:03;97411.57;;;29.43;39.11
60375;BME280;70244;48.792;9.172;2023-07-22T13:05:34;97405.77;;;29.46;38.82
60375;BME280;70244;48.792;9.172;2023-07-22T13:08:05;97405.68;;;29.43;39.07
60375;BME280;70244;48.792;9.172;2023-07-22T13:10:35;97402.07;;;29.43;39.18
60375;BME280;70244;48.792;9.172;2023-07-22T13:13:06;97399.34;;;29.55;39.06
60375;BME280;70244;48.792;9.172;2023-07-22T13:15:37;97393.92;;;29.49;39.19
60375;BME280;70244;48.792;9.172;2023-07-22T13:18:07;97394.51;;;29.48;38.72
60375;BME280;70244;48.792;9.172;2023-07-22T13:20:39;97391.36;;;29.27;38.56
60375;BME280;70244;48.792;9.172;2023-07-22T13:23:09;97392.65;;;29.07;39.24
60375;BME280;70244;48.792;9.172;2023-07-22T13:25:39;97392.40;;;29.36;39.19
60375;BME280;70244;48.792;9.172;2023-07-22T13:28:10;97392.41;;;29.47;38.87
60375;BME280;70244;48.792;9.172;2023-07-22T13:30:40;97392.43;;;29.12;39.48
60375;BME280;70244;48.792;9.172;2023-07-22T13:33:11;97390.55;;;29.13;39.04
60375;BME280;70244;48.792;9.172;2023-07-22T13:35:42;97391.49;;;29.41;38.97
60375;BME280;70244;48.792;9.172;2023-07-22T13:38:12;97388.29;;;29.47;38.66
60375;BME280;70244;48.792;9.172;2023-07-22T13:40:43;97386.65;;;28.89;40.06
60375;BME280;70244;48.792;9.172;2023-07-22T13:43:14;97386.30;;;29.09;39.73
60375;BME280;70244;48.792;9.172;2023-07-22T13:45:44;97386.38;;;29.39;39.07
60375;BME280;70244;48.792;9.172;2023-07-22T13:48:15;97388.50;;;29.35;38.76
60375;BME280;70244;48.792;9.172;2023-07-22T13:50:45;97389.31;;;29.34;38.87
60375;BME280;70244;48.792;9.172;2023-07-22T13:53:16;97382.85;;;29.36;38.66
60375;BME280;70244;48.792;9.172;2023-07-22T13:55:47;97388.06;;;29.48;37.93
60375;BME280;70244;48.792;9.172;2023-07-22T13:58:17;97384.26;;;29.47;38.29
60375;BME280;70244;48.792;9.172;2023-07-22T14:00:48;97382.55;;;29.55;38.19
60375;BME280;70244;48.792;9.172;2023-07-22T14:03:19;97378.28;;;29.61;38.21
60375;BME280;70244;48.792;9.172;2023-07-22T14:05:49;97378.37;;;29.67;38.08
60375;BME280;70244;48.792;9.172;2023-07-22T14:08:20;97374.56;;;29.57;37.85
60375;BME280;70244;48.792;9.172;2023-07-22T14:10:51;97374.75;;;29.44;38.36
60375;BME280;70244;48.792;9.172;2023-07-22T14:13:21;97371.44;;;29.39;38.53
60375;BME280;70244;48.792;9.172;2023-07-22T14:15:52;97376.26;;;29.10;39.38
60375;BME280;70244;48.792;9.172;2023-07-22T14:18:22;97372.37;;;29.04;39.83
60375;BME280;70244;48.792;9.172;2023-07-22T14:20:53;97369.06;;;29.23;39.76
60375;BME280;70244;48.792;9.172;2023-07-22T14:23:24;97364.50;;;29.31;39.65
60375;BME280;70244;48.792;9.172;2023-07-22T14:25:54;97366.81;;;29.26;39.75
60375;BME280;70244;48.792;9.172;2023-07-22T14:28:25;97370.41;;;29.52;39.02
60375;BME280;70244;48.792;9.172;2023-07-22T14:30:56;97367.35;;;29.65;38.59
60375;BME280;70244;48.792;9.172;2023-07-22T14:33:26;97367.25;;;29.45;39.44
60375;BME280;70244;48.792;9.172;2023-07-22T14:35:57;97370.67;;;29.56;38.81
60375;BME280;70244;48.792;9.172;2023-07-22T14:38:28;97369.92;;;29.60;38.63
60375;BME280;70244;48.792;9.172;2023-07-22T14:40:58;97362.63;;;29.64;38.28
60375;BME280;70244;48.792;9.172;2023-07-22T14:43:29;97362.38;;;29.63;38.17
60375;BME280;70244;48.792;9.172;2023-07-22T14:45:59;97367.13;;;29.69;37.71
60375;BME280;70244;48.792;9.172;2023-07-22T14:48:30;97363.92;;;29.71;37.69
60375;BME280;70244;48.792;9.172;2023-07-22T14:51:00;97359.25;;;29.63;37.96
60375;BME280;70244;48.792;9.172;2023-07-22T14:53:31;97360.86;;;29.58;38.18
60375;BME280;70244;48.792;9.172;2023-07-22T14:56:02;97357.62;;;29.56;38.21
60375;BME280;70244;48.792;9.172;2023-07-22T14:58:32;97360.76;;;29.62;37.67
60375;BME280;70244;48.792;9.172;2023-07-22T15:01:03;97358.26;;;29.56;37.85
60375;BME280;70244;48.792;9.172;2023-07-22T15:03:34;97364.81;;;29.59;37.91
60375;BME280;70244;48.792;9.172;2023-07-22T15:06:05;97364.99;;;29.69;37.83
60375;BME280;70244;48.792;9.172;2023-07-22T15:08:35;97364.25;;;29.05;39.53
60375;BME280;70244;48.792;9.172;2023-07-22T15:11:06;97367.39;;;29.13;40.17
60375;BME280;70244;48.792;9.172;2023-07-22T15:13:36;97364.46;;;29.06;40.68
60375;BME280;70244;48.792;9.172;2023-07-22T15:16:07;97359.97;;;29.48;39.17
60375;BME280;70244;48.792;9.172;2023-07-22T15:18:37;97362.99;;;29.04;40.88
60375;BME280;70244;48.792;9.172;2023-07-22T15:21:08;97363.49;;;29.62;39.65
60375;BME280;70244;48.792;9.172;2023-07-22T15:23:38;97360.96;;;29.52;40.39
60375;BME280;70244;48.792;9.172;2023-07-22T15:26:09;97359.78;;;29.42;40.19
60375;BME280;70244;48.792;9.172;2023-07-22T15:28:40;97362.61;;;28.96;41.61
60375;BME280;70244;48.792;9.172;2023-07-22T15:31:10;97364.11;;;28.14;43.66
60375;BME280;70244;48.792;9.172;2023-07-22T15:33:41;97362.55;;;29.41;40.34
60375;BME280;70244;48.792;9.172;2023-07-22T15:36:12;97362.00;;;29.51;39.00
60375;BME280;70244;48.792;9.172;2023-07-22T15:38:42;97366.92;;;29.63;38.38
60375;BME280;70244;48.792;9.172;2023-07-22T15:41:13;97365.35;;;29.58;38.52
60375;BME280;70244;48.792;9.172;2023-07-22T15:43:43;97365.38;;;29.60;38.93
60375;BME280;70244;48.792;9.172;2023-07-22T15:46:14;97364.48;;;29.58;38.21
60375;BME280;70244;48.792;9.172;2023-07-22T15:48:50;97365.28;;;29.64;37.80
60375;BME280;70244;48.792;9.172;2023-07-22T15:51:15;97359.53;;;29.43;39.03
60375;BME280;70244;48.792;9.172;2023-07-22T15:53:46;97363.46;;;29.59;38.13
60375;BME280;70244;48.792;9.172;2023-07-22T15:56:17;97366.07;;;29.69;37.58
60375;BME280;70244;48.792;9.172;2023-07-22T15:58:47;97365.81;;;29.67;37.52
60375;BME280;70244;48.792;9.172;2023-07-22T16:01:18;97366.02;;;29.64;37.57
60375;BME280;70244;48.792;9.172;2023-07-22T16:03:49;97366.39;;;29.57;37.45
60375;BME280;70244;48.792;9.172;2023-07-22T16:06:19;97369.42;;;29.53;37.70
60375;BME280;70244;48.792;9.172;2023-07-22T16:08:50;97372.99;;;29.51;37.92
60375;BME280;70244;48.792;9.172;2023-07-22T16:11:20;97372.44;;;29.57;37.88
60375;BME280;70244;48.792;9.172;2023-07-22T16:13:51;97371.07;;;29.53;38.00
60375;BME280;70244;48.792;9.172;2023-07-22T16:16:22;97372.11;;;29.33;38.76
60375;BME280;70244;48.792;9.172;2023-07-22T16:18:52;97373.34;;;29.01;39.30
60375;BME280;70244;48.792;9.172;2023-07-22T16:21:23;97372.51;;;29.41;38.83
60375;BME280;70244;48.792;9.172;2023-07-22T16:23:54;97374.49;;;29.58;38.29
60375;BME280;70244;48.792;9.172;2023-07-22T16:26:24;97372.56;;;29.61;38.17
60375;BME280;70244;48.792;9.172;2023-07-22T16:28:55;97371.40;;;29.62;38.20
60375;BME280;70244;48.792;9.172;2023-07-22T16:31:26;97370.50;;;29.53;38.64
60375;BME280;70244;48.792;9.172;2023-07-22T16:33:56;97371.95;;;29.54;38.60
60375;BME280;70244;48.792;9.172;2023-07-22T16:36:27;97374.39;;;29.49;38.80
60375;BME280;70244;48.792;9.172;2023-07-22T16:38:58;97372.42;;;28.74;40.91
60375;BME280;70244;48.792;9.172;2023-07-22T16:41:28;97370.42;;;29.43;39.55
60375;BME280;70244;48.792;9.172;2023-07-22T16:43:58;97370.28;;;29.69;38.98
60375;BME280;70244;48.792;9.172;2023-07-22T16:46:29;97372.79;;;29.68;39.11
60375;BME280;70244;48.792;9.172;2023-07-22T16:49:00;97368.73;;;29.70;39.10
60375;BME280;70244;48.792;9.172;2023-07-22T16:51:30;97372.03;;;29.92;38.83
60375;BME280;70244;48.792;9.172;2023-07-22T16:54:01;97367.31;;;29.57;38.77
60375;BME280;70244;48.792;9.172;2023-07-22T16:56:31;97368.27;;;29.21;40.11
60375;BME280;70244;48.792;9.172;2023-07-22T16:59:02;97362.40;;;29.25;39.71
60375;BME280;70244;48.792;9.172;2023-07-22T17:01:33;97363.06;;;29.14;39.72
60375;BME280;70244;48.792;9.172;2023-07-22T17:04:04;97360.50;;;29.27;38.96
60375;BME280;70244;48.792;9.172;2023-07-22T17:06:34;97360.58;;;29.15;38.84
60375;BME280;70244;48.792;9.172;2023-07-22T17:09:05;97355.40;;;29.32;38.33
60375;BME280;70244;48.792;9.172;2023-07-22T17:11:35;97356.55;;;28.97;38.61
60375;BME280;70244;48.792;9.172;2023-07-22T17:14:06;97357.39;;;29.13;38.09
60375;BME280;70244;48.792;9.172;2023-07-22T17:16:37;97353.57;;;28.83;38.99
60375;BME280;70244;48.792;9.172;2023-07-22T17:19:07;97352.91;;;28.75;39.65
60375;BME280;70244;48.792;9.172;2023-07-22T17:21:38;97355.55;;;28.85;41.12
60375;BME280;70244;48.792;9.172;2023-07-22T17:24:09;97356.67;;;29.15;40.09
60375;BME280;70244;48.792;9.172;2023-07-22T17:26:39;97355.24;;;29.51;38.55
60375;BME280;70244;48.792;9.172;2023-07-22T17:29:10;97356.92;;;29.18;39.24
60375;BME280;70244;48.792;9.172;2023-07-22T17:31:41;97348.58;;;29.29;38.22
60375;BME280;70244;48.792;9.172;2023-07-22T17:34:11;97348.55;;;28.94;38.30
60375;BME280;70244;48.792;9.172;2023-07-22T17:36:42;97348.93;;;29.66;36.82